sensor_id;sensor_type;location;lat;lon;timestamp;P1;durP1;ratioP1;P2;durP2;ratioP2
18752;SDS011;9505;50.882;5.350;2023-11-19T00:01:48;20.90;;;3.10;;
18752;SDS011;9505;50.882;5.350;2023-11-19T00:04:14;16.00;;;2.80;;
18752;SDS011;9505;50.882;5.350;2023-11-19T00:06:40;9.43;;;2.20;;
18752;SDS011;9505;50.882;5.350;2023-11-19T00:09:05;17.85;;;3.20;;
18752;SDS011;9505;50.882;5.350;2023-11-19T00:11:33;15.60;;;2.88;;
18752;SDS011;9505;50.882;5.350;2023-11-19T00:13:58;15.57;;;3.03;;
18752;SDS011;9505;50.882;5.350;2023-11-19T00:16:24;23.98;;;3.88;;
18752;SDS011;9505;50.882;5.350;2023-11-19T00:18:49;12.32;;;2.85;;
18752;SDS011;9505;50.882;5.350;2023-11-19T00:21:15;24.38;;;3.92;;
18752;SDS011;9505;50.882;5.350;2023-11-19T00:23:41;8.77;;;2.95;;
18752;SDS011;9505;50.882;5.350;2023-11-19T00:26:06;17.20;;;3.28;;
18752;SDS011;9505;50.882;5.350;2023-11-19T00:28:32;15.95;;;4.25;;
18752;SDS011;9505;50.882;5.350;2023-11-19T00:30:58;20.20;;;4.15;;
18752;SDS011;9505;50.882;5.350;2023-11-19T00:33:24;21.10;;;4.32;;
18752;SDS011;9505;50.882;5.350;2023-11-19T00:35:50;17.35;;;4.22;;
18752;SDS011;9505;50.882;5.350;2023-11-19T00:38:15;10.55;;;3.88;;
18752;SDS011;9505;50.882;5.350;2023-11-19T00:40:41;13.52;;;3.80;;
18752;SDS011;9505;50.882;5.350;2023-11-19T00:43:07;25.20;;;4.55;;
18752;SDS011;9505;50.882;5.350;2023-11-19T00:45:32;21.27;;;5.25;;
18752;SDS011;9505;50.882;5.350;2023-11-19T00:47:58;22.20;;;4.68;;
18752;SDS011;9505;50.882;5.350;2023-11-19T00:50:24;27.23;;;5.40;;
18752;SDS011;9505;50.882;5.350;2023-11-19T00:52:50;18.25;;;4.82;;
18752;SDS011;9505;50.882;5.350;2023-11-19T00:55:16;20.27;;;4.78;;
18752;SDS011;9505;50.882;5.350;2023-11-19T00:57:42;21.63;;;4.50;;
18752;SDS011;9505;50.882;5.350;2023-11-19T01:00:08;21.48;;;4.85;;
18752;SDS011;9505;50.882;5.350;2023-11-19T01:02:43;24.92;;;4.88;;
18752;SDS011;9505;50.882;5.350;2023-11-19T01:05:14;21.27;;;5.20;;
18752;SDS011;9505;50.882;5.350;2023-11-19T01:07:40;27.42;;;5.18;;
18752;SDS011;9505;50.882;5.350;2023-11-19T01:10:05;17.98;;;4.47;;
18752;SDS011;9505;50.882;5.350;2023-11-19T01:12:33;26.02;;;4.82;;
18752;SDS011;9505;50.882;5.350;2023-11-19T01:14:59;23.08;;;5.90;;
18752;SDS011;9505;50.882;5.350;2023-11-19T01:17:26;21.20;;;4.70;;
18752;SDS011;9505;50.882;5.350;2023-11-19T01:19:51;26.48;;;4.78;;
18752;SDS011;9505;50.882;5.350;2023-11-19T01:22:17;28.38;;;4.97;;
18752;SDS011;9505;50.882;5.350;2023-11-19T01:24:44;27.25;;;4.90;;
18752;SDS011;9505;50.882;5.350;2023-11-19T01:27:09;23.40;;;5.05;;
18752;SDS011;9505;50.882;5.350;2023-11-19T01:29:35;21.13;;;4.32;;
18752;SDS011;9505;50.882;5.350;2023-11-19T01:32:03;25.23;;;4.13;;
18752;SDS011;9505;50.882;5.350;2023-11-19T01:34:29;31.02;;;4.65;;
18752;SDS011;9505;50.882;5.350;2023-11-19T01:36:54;42.35;;;5.50;;
18752;SDS011;9505;50.882;5.350;2023-11-19T01:39:20;30.60;;;4.88;;
18752;SDS011;9505;50.882;5.350;2023-11-19T01:41:46;24.08;;;4.53;;
18752;SDS011;9505;50.882;5.350;2023-11-19T01:44:11;27.05;;;5.05;;
18752;SDS011;9505;50.882;5.350;2023-11-19T01:46:41;26.92;;;6.30;;
18752;SDS011;9505;50.882;5.350;2023-11-19T01:49:09;33.58;;;4.88;;
18752;SDS011;9505;50.882;5.350;2023-11-19T01:51:36;30.75;;;4.88;;
18752;SDS011;9505;50.882;5.350;2023-11-19T01:54:03;29.38;;;4.63;;
18752;SDS011;9505;50.882;5.350;2023-11-19T01:56:29;19.52;;;3.45;;
18752;SDS011;9505;50.882;5.350;2023-11-19T01:58:56;33.20;;;4.57;;
18752;SDS011;9505;50.882;5.350;2023-11-19T02:01:23;22.38;;;3.70;;
18752;SDS011;9505;50.882;5.350;2023-11-19T02:03:48;50.97;;;4.93;;
18752;SDS011;9505;50.882;5.350;2023-11-19T02:06:14;30.98;;;4.25;;
18752;SDS011;9505;50.882;5.350;2023-11-19T02:08:40;27.63;;;4.18;;
18752;SDS011;9505;50.882;5.350;2023-11-19T02:11:06;28.13;;;3.75;;
18752;SDS011;9505;50.882;5.350;2023-11-19T02:13:32;30.80;;;3.85;;
18752;SDS011;9505;50.882;5.350;2023-11-19T02:15:58;34.70;;;4.63;;
18752;SDS011;9505;50.882;5.350;2023-11-19T02:18:25;23.85;;;3.55;;
18752;SDS011;9505;50.882;5.350;2023-11-19T02:20:55;38.85;;;4.10;;
18752;SDS011;9505;50.882;5.350;2023-11-19T02:23:22;43.63;;;4.63;;
18752;SDS011;9505;50.882;5.350;2023-11-19T02:26:36;27.42;;;3.88;;
18752;SDS011;9505;50.882;5.350;2023-11-19T02:28:36;26.50;;;3.80;;
18752;SDS011;9505;50.882;5.350;2023-11-19T02:31:02;19.77;;;3.08;;
18752;SDS011;9505;50.882;5.350;2023-11-19T02:33:30;23.63;;;3.42;;
18752;SDS011;9505;50.882;5.350;2023-11-19T02:35:55;52.95;;;4.88;;
18752;SDS011;9505;50.882;5.350;2023-11-19T02:38:21;25.08;;;3.33;;
18752;SDS011;9505;50.882;5.350;2023-11-19T02:40:47;30.25;;;3.75;;
18752;SDS011;9505;50.882;5.350;2023-11-19T02:43:14;25.45;;;3.05;;
18752;SDS011;9505;50.882;5.350;2023-11-19T02:45:40;33.15;;;4.03;;
18752;SDS011;9505;50.882;5.350;2023-11-19T02:48:05;29.70;;;3.30;;
18752;SDS011;9505;50.882;5.350;2023-11-19T02:50:31;31.45;;;4.20;;
18752;SDS011;9505;50.882;5.350;2023-11-19T02:52:57;25.90;;;3.58;;
18752;SDS011;9505;50.882;5.350;2023-11-19T02:55:23;28.25;;;4.05;;
18752;SDS011;9505;50.882;5.350;2023-11-19T02:57:49;37.42;;;3.58;;
18752;SDS011;9505;50.882;5.350;2023-11-19T03:02:43;40.33;;;4.00;;
18752;SDS011;9505;50.882;5.350;2023-11-19T03:05:14;36.65;;;4.65;;
18752;SDS011;9505;50.882;5.350;2023-11-19T03:07:41;37.67;;;3.85;;
18752;SDS011;9505;50.882;5.350;2023-11-19T03:10:08;32.10;;;4.20;;
18752;SDS011;9505;50.882;5.350;2023-11-19T03:12:38;31.48;;;3.78;;
18752;SDS011;9505;50.882;5.350;2023-11-19T03:15:04;27.73;;;3.15;;
18752;SDS011;9505;50.882;5.350;2023-11-19T03:17:30;25.80;;;4.03;;
18752;SDS011;9505;50.882;5.350;2023-11-19T03:19:56;35.70;;;4.13;;
18752;SDS011;9505;50.882;5.350;2023-11-19T03:22:22;34.15;;;4.00;;
18752;SDS011;9505;50.882;5.350;2023-11-19T03:24:47;34.13;;;3.22;;
18752;SDS011;9505;50.882;5.350;2023-11-19T03:27:16;35.17;;;3.53;;
18752;SDS011;9505;50.882;5.350;2023-11-19T03:29:42;36.83;;;4.35;;
18752;SDS011;9505;50.882;5.350;2023-11-19T03:32:08;33.35;;;4.72;;
18752;SDS011;9505;50.882;5.350;2023-11-19T03:34:33;30.60;;;4.18;;
18752;SDS011;9505;50.882;5.350;2023-11-19T03:36:59;36.75;;;3.58;;
18752;SDS011;9505;50.882;5.350;2023-11-19T03:39:25;30.20;;;2.97;;
18752;SDS011;9505;50.882;5.350;2023-11-19T03:41:52;37.20;;;4.28;;
18752;SDS011;9505;50.882;5.350;2023-11-19T03:44:17;40.85;;;4.28;;
18752;SDS011;9505;50.882;5.350;2023-11-19T03:46:44;40.08;;;4.07;;
18752;SDS011;9505;50.882;5.350;2023-11-19T03:49:09;32.70;;;3.25;;
18752;SDS011;9505;50.882;5.350;2023-11-19T03:51:35;24.30;;;3.17;;
18752;SDS011;9505;50.882;5.350;2023-11-19T03:54:00;29.70;;;3.78;;
18752;SDS011;9505;50.882;5.350;2023-11-19T03:56:26;27.88;;;4.05;;
18752;SDS011;9505;50.882;5.350;2023-11-19T03:58:52;25.20;;;3.13;;
18752;SDS011;9505;50.882;5.350;2023-11-19T04:01:18;39.35;;;3.80;;
18752;SDS011;9505;50.882;5.350;2023-11-19T04:03:43;27.65;;;3.72;;
18752;SDS011;9505;50.882;5.350;2023-11-19T04:06:09;33.90;;;3.70;;
18752;SDS011;9505;50.882;5.350;2023-11-19T04:08:35;31.45;;;3.80;;
18752;SDS011;9505;50.882;5.350;2023-11-19T04:11:01;27.42;;;3.40;;
18752;SDS011;9505;50.882;5.350;2023-11-19T04:13:30;29.98;;;3.88;;
18752;SDS011;9505;50.882;5.350;2023-11-19T04:15:56;39.72;;;3.88;;
18752;SDS011;9505;50.882;5.350;2023-11-19T04:18:21;30.38;;;4.30;;
18752;SDS011;9505;50.882;5.350;2023-11-19T04:20:47;29.20;;;3.53;;
18752;SDS011;9505;50.882;5.350;2023-11-19T04:23:12;42.85;;;3.65;;
18752;SDS011;9505;50.882;5.350;2023-11-19T04:25:38;45.50;;;4.00;;
18752;SDS011;9505;50.882;5.350;2023-11-19T04:28:03;31.95;;;4.28;;
18752;SDS011;9505;50.882;5.350;2023-11-19T04:30:29;24.42;;;3.25;;
18752;SDS011;9505;50.882;5.350;2023-11-19T04:32:56;34.83;;;4.15;;
18752;SDS011;9505;50.882;5.350;2023-11-19T04:35:22;37.72;;;4.15;;
18752;SDS011;9505;50.882;5.350;2023-11-19T04:37:48;37.03;;;3.92;;
18752;SDS011;9505;50.882;5.350;2023-11-19T04:40:14;40.05;;;4.15;;
18752;SDS011;9505;50.882;5.350;2023-11-19T04:42:39;24.92;;;4.03;;
18752;SDS011;9505;50.882;5.350;2023-11-19T04:45:05;46.38;;;3.90;;
18752;SDS011;9505;50.882;5.350;2023-11-19T04:47:32;30.27;;;4.00;;
18752;SDS011;9505;50.882;5.350;2023-11-19T04:49:58;29.23;;;3.47;;
18752;SDS011;9505;50.882;5.350;2023-11-19T04:52:24;42.88;;;4.13;;
18752;SDS011;9505;50.882;5.350;2023-11-19T04:54:49;37.28;;;4.03;;
18752;SDS011;9505;50.882;5.350;2023-11-19T04:57:15;40.90;;;5.22;;
18752;SDS011;9505;50.882;5.350;2023-11-19T04:59:41;38.20;;;3.75;;
18752;SDS011;9505;50.882;5.350;2023-11-19T05:02:06;29.67;;;3.38;;
18752;SDS011;9505;50.882;5.350;2023-11-19T05:04:33;31.20;;;3.22;;
18752;SDS011;9505;50.882;5.350;2023-11-19T05:06:59;31.67;;;3.90;;
18752;SDS011;9505;50.882;5.350;2023-11-19T05:09:24;34.05;;;3.65;;
18752;SDS011;9505;50.882;5.350;2023-11-19T05:11:50;36.85;;;3.83;;
18752;SDS011;9505;50.882;5.350;2023-11-19T05:14:16;41.50;;;3.78;;
18752;SDS011;9505;50.882;5.350;2023-11-19T05:16:41;39.10;;;4.20;;
18752;SDS011;9505;50.882;5.350;2023-11-19T05:19:08;37.30;;;3.60;;
18752;SDS011;9505;50.882;5.350;2023-11-19T05:21:34;38.30;;;3.88;;
18752;SDS011;9505;50.882;5.350;2023-11-19T05:24:00;47.55;;;6.10;;
18752;SDS011;9505;50.882;5.350;2023-11-19T05:26:29;34.13;;;4.13;;
18752;SDS011;9505;50.882;5.350;2023-11-19T05:28:55;37.42;;;3.65;;
18752;SDS011;9505;50.882;5.350;2023-11-19T05:31:20;34.05;;;4.30;;
18752;SDS011;9505;50.882;5.350;2023-11-19T05:33:46;30.25;;;4.57;;
18752;SDS011;9505;50.882;5.350;2023-11-19T05:36:12;48.35;;;4.57;;
18752;SDS011;9505;50.882;5.350;2023-11-19T05:38:38;33.05;;;3.90;;
18752;SDS011;9505;50.882;5.350;2023-11-19T05:41:04;50.35;;;4.32;;
18752;SDS011;9505;50.882;5.350;2023-11-19T05:43:30;39.40;;;4.40;;
18752;SDS011;9505;50.882;5.350;2023-11-19T05:45:56;40.97;;;4.20;;
18752;SDS011;9505;50.882;5.350;2023-11-19T05:48:22;28.33;;;3.33;;
18752;SDS011;9505;50.882;5.350;2023-11-19T05:50:48;27.02;;;3.42;;
18752;SDS011;9505;50.882;5.350;2023-11-19T05:53:15;35.15;;;3.70;;
18752;SDS011;9505;50.882;5.350;2023-11-19T05:55:41;33.55;;;4.43;;
18752;SDS011;9505;50.882;5.350;2023-11-19T05:58:19;25.35;;;3.08;;
18752;SDS011;9505;50.882;5.350;2023-11-19T06:00:50;35.05;;;4.05;;
18752;SDS011;9505;50.882;5.350;2023-11-19T06:03:17;44.53;;;4.35;;
18752;SDS011;9505;50.882;5.350;2023-11-19T06:05:46;39.38;;;4.55;;
18752;SDS011;9505;50.882;5.350;2023-11-19T06:08:11;41.72;;;4.22;;
18752;SDS011;9505;50.882;5.350;2023-11-19T06:10:41;33.38;;;4.05;;
18752;SDS011;9505;50.882;5.350;2023-11-19T06:13:06;30.02;;;4.13;;
18752;SDS011;9505;50.882;5.350;2023-11-19T06:15:35;31.45;;;4.95;;
18752;SDS011;9505;50.882;5.350;2023-11-19T06:18:01;37.88;;;3.58;;
18752;SDS011;9505;50.882;5.350;2023-11-19T06:20:28;42.67;;;4.10;;
18752;SDS011;9505;50.882;5.350;2023-11-19T06:22:55;33.60;;;3.72;;
18752;SDS011;9505;50.882;5.350;2023-11-19T06:25:21;43.83;;;4.55;;
18752;SDS011;9505;50.882;5.350;2023-11-19T06:27:48;37.35;;;4.00;;
18752;SDS011;9505;50.882;5.350;2023-11-19T06:30:14;43.13;;;4.80;;
18752;SDS011;9505;50.882;5.350;2023-11-19T06:32:40;38.00;;;4.25;;
18752;SDS011;9505;50.882;5.350;2023-11-19T06:35:06;30.77;;;3.88;;
18752;SDS011;9505;50.882;5.350;2023-11-19T06:37:32;45.95;;;4.40;;
18752;SDS011;9505;50.882;5.350;2023-11-19T06:39:57;48.88;;;4.72;;
18752;SDS011;9505;50.882;5.350;2023-11-19T06:42:24;44.47;;;4.90;;
18752;SDS011;9505;50.882;5.350;2023-11-19T06:44:49;41.70;;;5.28;;
18752;SDS011;9505;50.882;5.350;2023-11-19T06:47:16;37.05;;;4.32;;
18752;SDS011;9505;50.882;5.350;2023-11-19T06:49:45;34.65;;;3.90;;
18752;SDS011;9505;50.882;5.350;2023-11-19T06:52:10;53.67;;;5.35;;
18752;SDS011;9505;50.882;5.350;2023-11-19T06:54:37;46.75;;;4.25;;
18752;SDS011;9505;50.882;5.350;2023-11-19T06:57:04;41.38;;;4.88;;
18752;SDS011;9505;50.882;5.350;2023-11-19T06:59:30;39.38;;;4.50;;
18752;SDS011;9505;50.882;5.350;2023-11-19T07:01:56;44.28;;;4.93;;
18752;SDS011;9505;50.882;5.350;2023-11-19T07:04:21;30.20;;;3.75;;
18752;SDS011;9505;50.882;5.350;2023-11-19T07:06:47;43.25;;;4.20;;
18752;SDS011;9505;50.882;5.350;2023-11-19T07:09:14;40.08;;;5.05;;
18752;SDS011;9505;50.882;5.350;2023-11-19T07:11:39;45.50;;;4.68;;
18752;SDS011;9505;50.882;5.350;2023-11-19T07:14:09;49.50;;;5.47;;
18752;SDS011;9505;50.882;5.350;2023-11-19T07:16:35;50.13;;;4.75;;
18752;SDS011;9505;50.882;5.350;2023-11-19T07:19:04;39.88;;;4.57;;
18752;SDS011;9505;50.882;5.350;2023-11-19T07:21:30;49.58;;;4.53;;
18752;SDS011;9505;50.882;5.350;2023-11-19T07:23:58;55.22;;;4.63;;
18752;SDS011;9505;50.882;5.350;2023-11-19T07:26:23;42.05;;;5.15;;
18752;SDS011;9505;50.882;5.350;2023-11-19T07:28:50;36.85;;;4.53;;
18752;SDS011;9505;50.882;5.350;2023-11-19T07:31:16;54.10;;;5.57;;
18752;SDS011;9505;50.882;5.350;2023-11-19T07:33:44;43.85;;;4.10;;
18752;SDS011;9505;50.882;5.350;2023-11-19T07:36:11;35.58;;;5.50;;
18752;SDS011;9505;50.882;5.350;2023-11-19T07:38:37;30.33;;;3.80;;
18752;SDS011;9505;50.882;5.350;2023-11-19T07:41:03;31.55;;;3.60;;
18752;SDS011;9505;50.882;5.350;2023-11-19T07:43:35;55.80;;;6.40;;
18752;SDS011;9505;50.882;5.350;2023-11-19T07:46:00;30.58;;;4.28;;
18752;SDS011;9505;50.882;5.350;2023-11-19T07:48:27;46.70;;;4.68;;
18752;SDS011;9505;50.882;5.350;2023-11-19T07:50:52;40.85;;;4.55;;
18752;SDS011;9505;50.882;5.350;2023-11-19T07:53:18;63.20;;;5.95;;
18752;SDS011;9505;50.882;5.350;2023-11-19T07:55:45;48.53;;;5.07;;
18752;SDS011;9505;50.882;5.350;2023-11-19T07:58:11;50.72;;;5.30;;
18752;SDS011;9505;50.882;5.350;2023-11-19T08:00:37;38.75;;;4.28;;
18752;SDS011;9505;50.882;5.350;2023-11-19T08:03:03;85.40;;;7.53;;
18752;SDS011;9505;50.882;5.350;2023-11-19T08:05:29;79.72;;;6.60;;
18752;SDS011;9505;50.882;5.350;2023-11-19T08:07:56;104.72;;;8.45;;
18752;SDS011;9505;50.882;5.350;2023-11-19T08:10:22;109.13;;;9.48;;
18752;SDS011;9505;50.882;5.350;2023-11-19T08:12:47;43.17;;;5.25;;
18752;SDS011;9505;50.882;5.350;2023-11-19T08:15:13;49.63;;;4.80;;
18752;SDS011;9505;50.882;5.350;2023-11-19T08:17:39;105.05;;;7.82;;
18752;SDS011;9505;50.882;5.350;2023-11-19T08:20:05;92.00;;;7.32;;
18752;SDS011;9505;50.882;5.350;2023-11-19T08:22:35;116.75;;;9.95;;
18752;SDS011;9505;50.882;5.350;2023-11-19T08:25:01;45.88;;;5.32;;
18752;SDS011;9505;50.882;5.350;2023-11-19T08:27:26;39.20;;;4.20;;
18752;SDS011;9505;50.882;5.350;2023-11-19T08:29:53;77.32;;;6.00;;
18752;SDS011;9505;50.882;5.350;2023-11-19T08:32:22;99.18;;;8.20;;
18752;SDS011;9505;50.882;5.350;2023-11-19T08:34:49;120.85;;;9.68;;
18752;SDS011;9505;50.882;5.350;2023-11-19T08:37:15;101.43;;;8.70;;
18752;SDS011;9505;50.882;5.350;2023-11-19T08:39:43;57.25;;;5.45;;
18752;SDS011;9505;50.882;5.350;2023-11-19T08:42:08;36.00;;;4.05;;
18752;SDS011;9505;50.882;5.350;2023-11-19T08:44:34;64.13;;;5.75;;
18752;SDS011;9505;50.882;5.350;2023-11-19T08:47:00;96.78;;;7.30;;
18752;SDS011;9505;50.882;5.350;2023-11-19T08:49:25;98.47;;;8.38;;
18752;SDS011;9505;50.882;5.350;2023-11-19T08:51:51;61.05;;;5.50;;
18752;SDS011;9505;50.882;5.350;2023-11-19T08:54:17;37.55;;;4.15;;
18752;SDS011;9505;50.882;5.350;2023-11-19T08:56:42;63.63;;;6.75;;
18752;SDS011;9505;50.882;5.350;2023-11-19T08:59:08;95.53;;;8.20;;
18752;SDS011;9505;50.882;5.350;2023-11-19T09:01:34;71.63;;;6.72;;
18752;SDS011;9505;50.882;5.350;2023-11-19T09:03:59;45.20;;;5.07;;
18752;SDS011;9505;50.882;5.350;2023-11-19T09:06:25;45.47;;;4.97;;
18752;SDS011;9505;50.882;5.350;2023-11-19T09:08:51;88.82;;;7.93;;
18752;SDS011;9505;50.882;5.350;2023-11-19T09:11:17;88.65;;;8.38;;
18752;SDS011;9505;50.882;5.350;2023-11-19T09:13:43;54.45;;;6.05;;
18752;SDS011;9505;50.882;5.350;2023-11-19T09:16:11;47.17;;;5.20;;
18752;SDS011;9505;50.882;5.350;2023-11-19T09:18:37;38.97;;;4.13;;
18752;SDS011;9505;50.882;5.350;2023-11-19T09:21:03;67.57;;;6.18;;
18752;SDS011;9505;50.882;5.350;2023-11-19T09:23:28;75.10;;;6.78;;
18752;SDS011;9505;50.882;5.350;2023-11-19T09:25:57;116.20;;;10.65;;
18752;SDS011;9505;50.882;5.350;2023-11-19T09:28:23;47.53;;;5.03;;
18752;SDS011;9505;50.882;5.350;2023-11-19T09:30:48;58.90;;;5.90;;
18752;SDS011;9505;50.882;5.350;2023-11-19T09:33:14;98.00;;;8.73;;
18752;SDS011;9505;50.882;5.350;2023-11-19T09:35:40;90.80;;;8.27;;
18752;SDS011;9505;50.882;5.350;2023-11-19T09:38:05;72.32;;;7.13;;
18752;SDS011;9505;50.882;5.350;2023-11-19T09:40:31;56.78;;;5.63;;
18752;SDS011;9505;50.882;5.350;2023-11-19T09:42:57;32.55;;;5.13;;
18752;SDS011;9505;50.882;5.350;2023-11-19T09:45:22;52.17;;;5.50;;
18752;SDS011;9505;50.882;5.350;2023-11-19T09:47:53;65.25;;;6.53;;
18752;SDS011;9505;50.882;5.350;2023-11-19T09:50:20;93.88;;;8.27;;
18752;SDS011;9505;50.882;5.350;2023-11-19T09:52:46;86.45;;;7.97;;
18752;SDS011;9505;50.882;5.350;2023-11-19T09:55:12;84.88;;;8.13;;
18752;SDS011;9505;50.882;5.350;2023-11-19T09:57:38;57.35;;;7.40;;
18752;SDS011;9505;50.882;5.350;2023-11-19T10:00:05;36.88;;;4.32;;
18752;SDS011;9505;50.882;5.350;2023-11-19T10:02:33;45.53;;;4.78;;
18752;SDS011;9505;50.882;5.350;2023-11-19T10:05:11;44.90;;;4.72;;
18752;SDS011;9505;50.882;5.350;2023-11-19T10:07:38;38.25;;;4.13;;
18752;SDS011;9505;50.882;5.350;2023-11-19T10:10:04;36.53;;;4.43;;
18752;SDS011;9505;50.882;5.350;2023-11-19T10:12:30;97.15;;;8.30;;
18752;SDS011;9505;50.882;5.350;2023-11-19T10:14:56;87.90;;;8.32;;
18752;SDS011;9505;50.882;5.350;2023-11-19T10:17:33;62.80;;;6.38;;
18752;SDS011;9505;50.882;5.350;2023-11-19T10:19:59;86.18;;;7.85;;
18752;SDS011;9505;50.882;5.350;2023-11-19T10:22:27;87.18;;;8.45;;
18752;SDS011;9505;50.882;5.350;2023-11-19T10:24:53;42.13;;;4.32;;
18752;SDS011;9505;50.882;5.350;2023-11-19T10:27:19;34.05;;;4.15;;
18752;SDS011;9505;50.882;5.350;2023-11-19T10:29:45;27.88;;;3.10;;
18752;SDS011;9505;50.882;5.350;2023-11-19T10:32:12;72.50;;;6.70;;
18752;SDS011;9505;50.882;5.350;2023-11-19T10:34:41;82.30;;;8.30;;
18752;SDS011;9505;50.882;5.350;2023-11-19T10:37:08;68.97;;;6.22;;
18752;SDS011;9505;50.882;5.350;2023-11-19T10:39:52;61.92;;;6.07;;
18752;SDS011;9505;50.882;5.350;2023-11-19T10:42:22;46.67;;;5.53;;
18752;SDS011;9505;50.882;5.350;2023-11-19T10:44:47;76.97;;;8.00;;
18752;SDS011;9505;50.882;5.350;2023-11-19T10:47:13;110.43;;;9.40;;
18752;SDS011;9505;50.882;5.350;2023-11-19T10:49:42;85.63;;;7.68;;
18752;SDS011;9505;50.882;5.350;2023-11-19T10:52:08;36.45;;;4.65;;
18752;SDS011;9505;50.882;5.350;2023-11-19T10:54:34;38.22;;;4.35;;
18752;SDS011;9505;50.882;5.350;2023-11-19T10:57:01;58.83;;;5.90;;
18752;SDS011;9505;50.882;5.350;2023-11-19T10:59:28;71.72;;;7.07;;
18752;SDS011;9505;50.882;5.350;2023-11-19T11:01:56;88.88;;;7.88;;
18752;SDS011;9505;50.882;5.350;2023-11-19T11:04:25;74.32;;;7.50;;
18752;SDS011;9505;50.882;5.350;2023-11-19T11:06:53;71.85;;;7.88;;
18752;SDS011;9505;50.882;5.350;2023-11-19T11:09:20;37.20;;;4.65;;
18752;SDS011;9505;50.882;5.350;2023-11-19T11:11:46;30.38;;;4.22;;
18752;SDS011;9505;50.882;5.350;2023-11-19T11:14:13;78.65;;;7.45;;
18752;SDS011;9505;50.882;5.350;2023-11-19T11:16:42;115.22;;;10.55;;
18752;SDS011;9505;50.882;5.350;2023-11-19T11:19:09;89.07;;;8.68;;
18752;SDS011;9505;50.882;5.350;2023-11-19T11:21:37;82.38;;;8.40;;
18752;SDS011;9505;50.882;5.350;2023-11-19T11:27:17;38.78;;;4.15;;
18752;SDS011;9505;50.882;5.350;2023-11-19T11:30:05;27.70;;;3.78;;
18752;SDS011;9505;50.882;5.350;2023-11-19T11:33:05;49.63;;;4.65;;
18752;SDS011;9505;50.882;5.350;2023-11-19T11:36:19;52.95;;;5.20;;
18752;SDS011;9505;50.882;5.350;2023-11-19T11:38:38;35.78;;;3.65;;
18752;SDS011;9505;50.882;5.350;2023-11-19T11:41:40;52.78;;;5.30;;
18752;SDS011;9505;50.882;5.350;2023-11-19T11:43:58;80.53;;;7.03;;
18752;SDS011;9505;50.882;5.350;2023-11-19T11:48:59;68.32;;;6.35;;
18752;SDS011;9505;50.882;5.350;2023-11-19T11:59:47;83.72;;;7.20;;
18752;SDS011;9505;50.882;5.350;2023-11-19T12:02:15;64.57;;;6.53;;
18752;SDS011;9505;50.882;5.350;2023-11-19T12:04:49;112.95;;;8.80;;
18752;SDS011;9505;50.882;5.350;2023-11-19T12:07:20;83.53;;;7.85;;
18752;SDS011;9505;50.882;5.350;2023-11-19T12:09:48;91.30;;;8.20;;
18752;SDS011;9505;50.882;5.350;2023-11-19T12:12:19;65.13;;;6.38;;
18752;SDS011;9505;50.882;5.350;2023-11-19T12:20:05;85.65;;;7.72;;
18752;SDS011;9505;50.882;5.350;2023-11-19T12:22:34;82.05;;;6.95;;
18752;SDS011;9505;50.882;5.350;2023-11-19T12:25:05;102.40;;;8.88;;
18752;SDS011;9505;50.882;5.350;2023-11-19T12:27:32;87.43;;;8.00;;
18752;SDS011;9505;50.882;5.350;2023-11-19T12:29:59;89.88;;;9.70;;
18752;SDS011;9505;50.882;5.350;2023-11-19T12:32:25;34.47;;;4.25;;
18752;SDS011;9505;50.882;5.350;2023-11-19T12:34:50;83.95;;;7.75;;
18752;SDS011;9505;50.882;5.350;2023-11-19T12:37:16;88.30;;;8.57;;
18752;SDS011;9505;50.882;5.350;2023-11-19T12:39:42;69.10;;;6.20;;
18752;SDS011;9505;50.882;5.350;2023-11-19T12:42:08;51.40;;;4.82;;
18752;SDS011;9505;50.882;5.350;2023-11-19T12:44:34;33.95;;;4.85;;
18752;SDS011;9505;50.882;5.350;2023-11-19T12:47:03;40.47;;;4.07;;
18752;SDS011;9505;50.882;5.350;2023-11-19T12:49:31;57.83;;;5.30;;
18752;SDS011;9505;50.882;5.350;2023-11-19T12:51:58;72.75;;;7.72;;
18752;SDS011;9505;50.882;5.350;2023-11-19T12:57:01;72.85;;;6.68;;
18752;SDS011;9505;50.882;5.350;2023-11-19T12:59:27;95.82;;;7.55;;
18752;SDS011;9505;50.882;5.350;2023-11-19T13:01:55;49.28;;;5.88;;
18752;SDS011;9505;50.882;5.350;2023-11-19T13:04:22;33.85;;;3.28;;
18752;SDS011;9505;50.882;5.350;2023-11-19T13:06:49;26.77;;;3.15;;
18752;SDS011;9505;50.882;5.350;2023-11-19T13:09:25;39.60;;;3.95;;
18752;SDS011;9505;50.882;5.350;2023-11-19T13:11:52;26.33;;;3.42;;
18752;SDS011;9505;50.882;5.350;2023-11-19T13:14:19;35.30;;;3.38;;
18752;SDS011;9505;50.882;5.350;2023-11-19T13:16:45;79.75;;;7.07;;
18752;SDS011;9505;50.882;5.350;2023-11-19T13:19:12;82.20;;;7.25;;
18752;SDS011;9505;50.882;5.350;2023-11-19T13:21:38;83.03;;;6.60;;
18752;SDS011;9505;50.882;5.350;2023-11-19T13:24:05;68.20;;;6.95;;
18752;SDS011;9505;50.882;5.350;2023-11-19T13:26:31;52.10;;;5.72;;
18752;SDS011;9505;50.882;5.350;2023-11-19T13:28:57;43.72;;;4.55;;
18752;SDS011;9505;50.882;5.350;2023-11-19T13:31:22;58.88;;;5.95;;
18752;SDS011;9505;50.882;5.350;2023-11-19T13:33:48;89.75;;;7.97;;
18752;SDS011;9505;50.882;5.350;2023-11-19T13:36:14;68.90;;;6.35;;
18752;SDS011;9505;50.882;5.350;2023-11-19T13:38:40;26.83;;;3.17;;
18752;SDS011;9505;50.882;5.350;2023-11-19T13:41:09;46.30;;;4.70;;
18752;SDS011;9505;50.882;5.350;2023-11-19T13:43:36;33.85;;;3.95;;
18752;SDS011;9505;50.882;5.350;2023-11-19T13:46:02;58.42;;;6.47;;
18752;SDS011;9505;50.882;5.350;2023-11-19T13:48:29;89.82;;;8.13;;
18752;SDS011;9505;50.882;5.350;2023-11-19T13:50:55;71.03;;;5.88;;
18752;SDS011;9505;50.882;5.350;2023-11-19T13:53:21;35.20;;;5.25;;
18752;SDS011;9505;50.882;5.350;2023-11-19T13:55:48;32.80;;;3.90;;
18752;SDS011;9505;50.882;5.350;2023-11-19T13:58:14;74.15;;;6.88;;
18752;SDS011;9505;50.882;5.350;2023-11-19T14:00:40;86.57;;;7.60;;
18752;SDS011;9505;50.882;5.350;2023-11-19T14:03:07;94.82;;;8.20;;
18752;SDS011;9505;50.882;5.350;2023-11-19T14:05:33;46.72;;;5.60;;
18752;SDS011;9505;50.882;5.350;2023-11-19T14:07:58;21.58;;;3.63;;
18752;SDS011;9505;50.882;5.350;2023-11-19T14:10:24;44.60;;;4.68;;
18752;SDS011;9505;50.882;5.350;2023-11-19T14:12:49;89.20;;;8.57;;
18752;SDS011;9505;50.882;5.350;2023-11-19T14:15:15;97.05;;;8.10;;
18752;SDS011;9505;50.882;5.350;2023-11-19T14:17:44;72.40;;;6.57;;
18752;SDS011;9505;50.882;5.350;2023-11-19T14:20:10;41.40;;;4.82;;
18752;SDS011;9505;50.882;5.350;2023-11-19T14:22:40;40.88;;;6.13;;
18752;SDS011;9505;50.882;5.350;2023-11-19T14:25:10;44.72;;;4.47;;
18752;SDS011;9505;50.882;5.350;2023-11-19T14:27:39;62.67;;;5.90;;
18752;SDS011;9505;50.882;5.350;2023-11-19T14:30:07;95.80;;;8.60;;
18752;SDS011;9505;50.882;5.350;2023-11-19T14:32:36;88.60;;;8.13;;
18752;SDS011;9505;50.882;5.350;2023-11-19T14:35:02;84.60;;;7.25;;
18752;SDS011;9505;50.882;5.350;2023-11-19T14:37:29;65.35;;;6.45;;
18752;SDS011;9505;50.882;5.350;2023-11-19T14:39:58;74.63;;;6.55;;
18752;SDS011;9505;50.882;5.350;2023-11-19T14:42:24;33.30;;;4.18;;
18752;SDS011;9505;50.882;5.350;2023-11-19T14:44:53;34.42;;;4.25;;
18752;SDS011;9505;50.882;5.350;2023-11-19T14:47:21;88.20;;;8.75;;
18752;SDS011;9505;50.882;5.350;2023-11-19T14:49:47;90.15;;;8.27;;
18752;SDS011;9505;50.882;5.350;2023-11-19T14:52:13;88.47;;;8.23;;
18752;SDS011;9505;50.882;5.350;2023-11-19T14:54:39;63.40;;;5.90;;
18752;SDS011;9505;50.882;5.350;2023-11-19T14:57:05;37.80;;;4.47;;
18752;SDS011;9505;50.882;5.350;2023-11-19T14:59:33;32.70;;;3.58;;
18752;SDS011;9505;50.882;5.350;2023-11-19T15:01:59;65.60;;;7.00;;
18752;SDS011;9505;50.882;5.350;2023-11-19T15:04:25;92.10;;;7.85;;
18752;SDS011;9505;50.882;5.350;2023-11-19T15:06:51;85.20;;;7.70;;
18752;SDS011;9505;50.882;5.350;2023-11-19T15:09:17;46.50;;;5.40;;
18752;SDS011;9505;50.882;5.350;2023-11-19T15:11:45;44.33;;;5.40;;